createdAt,value
2023-03-06T00:00:56.711Z,6.03
2023-03-06T00:03:27.804Z,6.30
2023-03-06T00:05:57.169Z,6.40
2023-03-06T00:08:25.165Z,7.13
2023-03-06T00:10:52.160Z,6.93
2023-03-06T00:13:21.287Z,6.73
2023-03-06T00:15:48.846Z,5.80
2023-03-06T00:18:16.070Z,6.87
2023-03-06T00:20:44.349Z,7.00
2023-03-06T00:23:13.720Z,7.53
2023-03-06T00:25:45.369Z,7.50
2023-03-06T00:28:15.772Z,8.57
2023-03-06T00:30:42.806Z,7.67
2023-03-06T00:33:10.485Z,7.70
2023-03-06T00:35:39.323Z,6.83
2023-03-06T00:38:06.354Z,7.90
2023-03-06T00:40:33.267Z,7.70
2023-03-06T00:43:00.541Z,7.53
2023-03-06T00:45:27.274Z,8.27
2023-03-06T00:47:54.312Z,8.30
2023-03-06T00:50:21.133Z,8.07
2023-03-06T00:52:48.209Z,7.97
2023-03-06T00:55:15.129Z,9.53
2023-03-06T00:57:42.155Z,9.47
2023-03-06T01:00:10.082Z,9.00
2023-03-06T01:02:37.221Z,9.43
2023-03-06T01:05:04.521Z,9.43
2023-03-06T01:07:34.058Z,8.10
2023-03-06T01:10:00.903Z,8.87
2023-03-06T01:12:27.891Z,9.83
2023-03-06T01:14:54.571Z,9.67
2023-03-06T01:17:21.677Z,10.23
2023-03-06T01:19:48.403Z,10.80
2023-03-06T01:22:15.442Z,11.17
2023-03-06T01:24:42.170Z,10.77
2023-03-06T01:27:09.305Z,10.80
2023-03-06T01:29:36.093Z,10.83
2023-03-06T01:32:03.386Z,11.20
2023-03-06T01:34:30.296Z,11.17
2023-03-06T01:36:57.296Z,11.27
2023-03-06T01:39:24.254Z,11.73
2023-03-06T01:41:51.294Z,10.63
2023-03-06T01:44:17.986Z,11.63
2023-03-06T01:46:46.176Z,11.43
2023-03-06T01:49:21.264Z,10.83
2023-03-06T01:51:58.410Z,11.67
2023-03-06T01:54:35.650Z,10.60
2023-03-06T01:57:11.760Z,10.87
2023-03-06T01:59:41.274Z,10.20
2023-03-06T02:02:10.589Z,10.77
2023-03-06T02:04:41.198Z,11.47
2023-03-06T02:07:09.210Z,11.43
2023-03-06T02:09:38.470Z,11.40
2023-03-06T02:12:08.967Z,10.83
2023-03-06T02:14:36.132Z,9.97
2023-03-06T02:17:03.644Z,12.00
2023-03-06T02:20:10.454Z,10.10
2023-03-06T02:22:49.949Z,10.73
2023-03-06T02:25:40.911Z,9.80
2023-03-06T02:28:11.764Z,10.33
2023-03-06T02:30:41.326Z,10.60
2023-03-06T02:33:15.855Z,9.97
2023-03-06T02:35:49.578Z,10.47
2023-03-06T02:38:18.803Z,10.40
2023-03-06T02:40:49.178Z,9.77
2023-03-06T02:43:23.140Z,10.37
2023-03-06T02:45:51.196Z,10.80
2023-03-06T02:48:19.592Z,10.20
2023-03-06T02:50:48.097Z,11.10
2023-03-06T02:53:17.338Z,9.10
2023-03-06T02:55:44.344Z,9.97
2023-03-06T02:58:11.531Z,9.33
2023-03-06T03:00:40.191Z,9.73
2023-03-06T03:03:09.337Z,9.37
2023-03-06T03:05:36.221Z,10.67
2023-03-06T03:08:11.596Z,9.67
2023-03-06T03:10:38.892Z,9.50
2023-03-06T03:13:06.894Z,8.03
2023-03-06T03:15:34.840Z,8.80
2023-03-06T03:18:01.905Z,9.70
2023-03-06T03:20:28.815Z,9.27
2023-03-06T03:22:56.712Z,8.63
2023-03-06T03:25:26.086Z,9.50
2023-03-06T03:27:56.023Z,8.90
2023-03-06T03:30:23.203Z,8.77
2023-03-06T03:32:50.927Z,8.87
2023-03-06T03:35:17.979Z,8.90
2023-03-06T03:37:46.902Z,9.50
2023-03-06T03:40:14.369Z,9.03
2023-03-06T03:42:41.425Z,9.87
2023-03-06T03:45:10.095Z,9.47
2023-03-06T03:47:37.548Z,10.77
2023-03-06T03:50:04.949Z,9.13
2023-03-06T03:52:32.200Z,10.00
2023-03-06T03:54:59.146Z,10.43
2023-03-06T03:57:27.593Z,9.00
2023-03-06T03:59:55.779Z,9.10
2023-03-06T04:02:27.247Z,8.63
2023-03-06T04:05:14.591Z,8.70
2023-03-06T04:07:43.100Z,9.90
2023-03-06T04:10:11.890Z,9.33
2023-03-06T04:12:39.057Z,9.13
2023-03-06T04:15:07.836Z,8.03
2023-03-06T04:17:35.690Z,8.67
2023-03-06T04:20:06.038Z,8.73
2023-03-06T04:22:33.801Z,8.90
2023-03-06T04:25:00.820Z,10.23
2023-03-06T04:27:27.896Z,8.90
2023-03-06T04:29:56.368Z,12.70
2023-03-06T04:32:24.180Z,12.20
2023-03-06T04:34:51.424Z,19.43
2023-03-06T04:37:21.566Z,20.50
2023-03-06T04:39:50.107Z,26.00
2023-03-06T04:42:17.703Z,19.47
2023-03-06T04:44:44.864Z,20.97
2023-03-06T04:47:12.400Z,19.73
2023-03-06T04:49:39.239Z,23.53
2023-03-06T04:52:06.507Z,25.10
2023-03-06T04:54:33.307Z,27.50
2023-03-06T04:57:00.289Z,26.17
2023-03-06T04:59:27.217Z,25.37
2023-03-06T05:01:54.628Z,33.07
2023-03-06T05:04:21.504Z,31.13
2023-03-06T05:06:49.385Z,33.13
2023-03-06T05:09:16.757Z,32.60
2023-03-06T05:11:43.779Z,33.47
2023-03-06T05:14:10.508Z,39.53
2023-03-06T05:16:37.614Z,37.50
2023-03-06T05:19:04.451Z,34.77
2023-03-06T05:21:31.484Z,35.57
2023-03-06T05:23:58.296Z,34.77
2023-03-06T05:26:25.305Z,32.87
2023-03-06T05:28:52.108Z,36.03
2023-03-06T05:31:19.233Z,36.33
2023-03-06T05:33:46.057Z,45.23
2023-03-06T05:36:13.149Z,42.03
2023-03-06T05:38:39.888Z,42.83
2023-03-06T05:41:07.049Z,43.20
2023-03-06T05:43:33.861Z,37.47
2023-03-06T05:46:05.684Z,34.03
2023-03-06T05:48:34.224Z,31.57
2023-03-06T05:51:02.146Z,27.60
2023-03-06T05:53:29.652Z,29.23
2023-03-06T05:56:02.377Z,22.67
2023-03-06T05:58:30.857Z,26.07
2023-03-06T06:00:58.598Z,25.67
2023-03-06T06:03:25.777Z,23.27
2023-03-06T06:05:53.008Z,22.47
2023-03-06T06:08:20.650Z,20.83
2023-03-06T06:10:47.756Z,21.17
2023-03-06T06:13:15.115Z,22.23
2023-03-06T06:15:42.774Z,21.33
2023-03-06T06:18:09.660Z,21.60
2023-03-06T06:20:37.142Z,22.10
2023-03-06T06:23:04.184Z,19.07
2023-03-06T06:25:32.269Z,22.63
2023-03-06T06:27:59.432Z,20.27
2023-03-06T06:30:26.578Z,23.30
2023-03-06T06:32:53.250Z,25.10
2023-03-06T06:35:20.515Z,27.83
2023-03-06T06:47:27.783Z,82.60
2023-03-06T06:49:56.068Z,84.37
2023-03-06T06:52:24.764Z,69.20
2023-03-06T06:54:52.780Z,37.90
2023-03-06T06:57:20.534Z,32.97
2023-03-06T06:59:47.845Z,26.77
2023-03-06T07:02:32.123Z,22.43
2023-03-06T07:05:04.794Z,24.33
2023-03-06T07:07:38.650Z,25.10
2023-03-06T07:10:08.351Z,25.87
2023-03-06T07:12:37.024Z,20.43
2023-03-06T07:15:05.302Z,24.57
2023-03-06T07:17:32.731Z,25.27
2023-03-06T07:19:59.954Z,35.37
2023-03-06T07:22:27.496Z,34.07
2023-03-06T07:24:54.293Z,37.53
2023-03-06T07:27:22.996Z,33.30
2023-03-06T07:29:49.866Z,30.27
2023-03-06T07:32:16.909Z,25.87
2023-03-06T07:34:45.278Z,27.13
2023-03-06T07:37:12.664Z,33.87
2023-03-06T07:39:39.471Z,35.83
2023-03-06T07:42:07.749Z,32.67
2023-03-06T07:44:37.851Z,29.17
2023-03-06T07:47:05.607Z,27.73
2023-03-06T07:49:32.984Z,25.53
2023-03-06T07:52:01.581Z,25.83
2023-03-06T07:54:30.699Z,24.63
2023-03-06T07:56:57.793Z,20.80
2023-03-06T07:59:24.549Z,23.43
2023-03-06T08:01:54.077Z,22.87
2023-03-06T08:04:20.908Z,23.70
2023-03-06T08:06:48.013Z,23.67
2023-03-06T08:09:14.794Z,23.53
2023-03-06T08:11:41.747Z,23.50
2023-03-06T08:14:08.740Z,22.73
2023-03-06T08:16:35.818Z,22.63
2023-03-06T08:19:02.653Z,24.00
2023-03-06T08:21:29.710Z,23.70
2023-03-06T08:23:56.814Z,19.33
2023-03-06T08:26:26.672Z,18.53
2023-03-06T08:28:55.372Z,18.70
2023-03-06T08:31:35.296Z,18.80
2023-03-06T08:34:05.251Z,20.50
2023-03-06T08:36:32.884Z,22.23
2023-03-06T08:39:00.223Z,21.27
2023-03-06T08:41:28.333Z,21.77
2023-03-06T08:43:55.262Z,22.53
2023-03-06T08:46:24.862Z,22.20
2023-03-06T08:48:51.807Z,23.27
2023-03-06T08:51:19.453Z,23.83
2023-03-06T08:53:46.742Z,25.13
2023-03-06T08:56:37.995Z,24.87
2023-03-06T08:59:06.618Z,24.70
2023-03-06T09:01:36.729Z,25.60
2023-03-06T09:04:07.565Z,24.47
2023-03-06T09:06:38.190Z,24.30
2023-03-06T09:09:05.938Z,24.17
2023-03-06T09:11:33.069Z,23.37
2023-03-06T09:13:59.941Z,23.33
2023-03-06T09:16:27.543Z,26.13
2023-03-06T09:18:54.469Z,26.90
2023-03-06T09:21:22.576Z,26.27
2023-03-06T09:23:50.000Z,24.83
2023-03-06T09:26:17.696Z,27.37
2023-03-06T09:28:44.446Z,26.20
2023-03-06T09:31:14.855Z,25.73
2023-03-06T09:33:42.001Z,25.07
2023-03-06T09:36:14.278Z,24.70
2023-03-06T09:38:41.098Z,24.77
2023-03-06T09:41:21.080Z,25.27
2023-03-06T09:43:50.497Z,24.03
2023-03-06T09:46:23.639Z,23.60
2023-03-06T09:49:14.214Z,22.80
2023-03-06T09:51:44.592Z,20.77
2023-03-06T09:54:15.426Z,18.03
2023-03-06T09:56:49.570Z,19.07
2023-03-06T09:59:26.112Z,18.77
2023-03-06T10:02:03.121Z,18.77
2023-03-06T10:04:44.218Z,19.30
2023-03-06T10:07:23.880Z,19.23
2023-03-06T10:10:01.534Z,15.67
2023-03-06T10:13:01.011Z,15.60
2023-03-06T10:15:33.435Z,14.10
2023-03-06T10:18:02.990Z,13.50
2023-03-06T10:20:51.408Z,14.97
2023-03-06T10:23:40.061Z,12.87
2023-03-06T10:26:18.660Z,10.70
2023-03-06T10:28:55.370Z,11.43
2023-03-06T10:31:26.338Z,11.37
2023-03-06T10:34:11.894Z,12.13
2023-03-06T10:36:38.744Z,10.50
2023-03-06T10:39:17.315Z,10.23
2023-03-06T10:41:45.358Z,7.60
2023-03-06T10:44:12.497Z,8.13
2023-03-06T10:46:42.472Z,11.00
2023-03-06T10:49:30.500Z,12.63
2023-03-06T10:52:01.967Z,12.43
2023-03-06T10:54:33.184Z,13.27
2023-03-06T10:57:25.299Z,12.87
2023-03-06T11:00:01.143Z,11.77
2023-03-06T11:02:33.961Z,10.73
2023-03-06T11:05:01.510Z,10.57
2023-03-06T11:07:31.081Z,11.50
2023-03-06T11:09:57.985Z,10.33
2023-03-06T11:12:34.270Z,10.93
2023-03-06T11:15:07.662Z,9.60
2023-03-06T11:17:37.599Z,10.37
2023-03-06T11:20:23.361Z,10.67
2023-03-06T11:23:17.756Z,10.17
2023-03-06T11:25:51.866Z,10.70
2023-03-06T11:28:24.063Z,10.27
2023-03-06T11:31:03.808Z,10.73
2023-03-06T11:33:46.765Z,9.03
2023-03-06T11:36:18.601Z,8.93
2023-03-06T11:38:55.010Z,10.30
2023-03-06T11:41:39.933Z,9.00
2023-03-06T11:44:14.358Z,9.53
2023-03-06T11:46:46.941Z,8.53
2023-03-06T11:49:25.866Z,8.27
2023-03-06T11:52:03.399Z,8.33
2023-03-06T11:54:31.303Z,6.80
2023-03-06T11:57:02.314Z,6.87
2023-03-06T11:59:58.363Z,7.03
2023-03-06T12:02:46.952Z,7.63
2023-03-06T12:05:26.070Z,6.77
2023-03-06T12:08:23.129Z,7.83
2023-03-06T12:11:01.163Z,7.53
2023-03-06T12:14:05.665Z,8.33
2023-03-06T12:16:55.809Z,5.17
2023-03-06T12:19:52.455Z,7.33
2023-03-06T12:22:53.360Z,9.40
2023-03-06T12:25:57.026Z,7.97
2023-03-06T12:28:54.385Z,12.03
2023-03-06T12:31:35.951Z,13.53
2023-03-06T12:34:28.462Z,12.93
2023-03-06T12:37:21.148Z,13.53
2023-03-06T12:40:09.985Z,12.57
2023-03-06T12:43:06.462Z,11.47
2023-03-06T12:45:35.058Z,11.87
2023-03-06T12:48:03.436Z,12.03
2023-03-06T12:50:33.434Z,12.17
2023-03-06T12:53:07.744Z,9.17
2023-03-06T12:55:41.709Z,9.73
2023-03-06T12:58:30.599Z,19.73
2023-03-06T13:01:29.361Z,16.90
2023-03-06T13:04:25.403Z,13.97
2023-03-06T13:07:03.093Z,14.03
2023-03-06T13:09:51.646Z,14.43
2023-03-06T13:12:46.195Z,13.83
2023-03-06T13:15:37.210Z,14.60
2023-03-06T13:18:22.603Z,14.67
2023-03-06T13:20:50.629Z,14.97
2023-03-06T13:23:29.659Z,14.63
2023-03-06T13:25:59.755Z,15.17
2023-03-06T13:28:45.034Z,14.83
2023-03-06T13:31:33.217Z,16.03
2023-03-06T13:34:05.535Z,15.90
2023-03-06T13:36:33.206Z,15.40
2023-03-06T13:39:08.506Z,15.63
2023-03-06T13:41:57.394Z,16.40
2023-03-06T13:44:24.496Z,15.53
2023-03-06T13:47:00.698Z,15.57
2023-03-06T13:49:29.104Z,14.77
2023-03-06T13:52:31.495Z,15.47
2023-03-06T13:55:08.324Z,16.40
2023-03-06T13:57:52.529Z,14.07
2023-03-06T14:00:46.302Z,7.07
2023-03-06T14:03:49.432Z,8.20
2023-03-06T14:06:34.109Z,6.77
2023-03-06T14:09:06.104Z,6.90
2023-03-06T14:11:34.241Z,7.20
2023-03-06T14:14:01.855Z,6.20
2023-03-06T14:16:40.559Z,6.67
2023-03-06T14:19:19.118Z,7.13
2023-03-06T14:21:55.720Z,6.23
2023-03-06T14:24:34.261Z,5.30
2023-03-06T14:27:01.102Z,5.77
2023-03-06T14:29:29.868Z,6.23
2023-03-06T14:32:09.540Z,6.00
2023-03-06T14:34:45.847Z,4.17
2023-03-06T14:37:22.644Z,4.20
2023-03-06T14:39:50.100Z,4.90
2023-03-06T14:42:20.976Z,5.00
2023-03-06T14:44:49.698Z,4.07
2023-03-06T14:47:34.194Z,4.20
2023-03-06T14:50:23.910Z,4.27
2023-03-06T14:52:55.181Z,4.40
2023-03-06T14:55:25.394Z,4.40
2023-03-06T14:58:01.830Z,3.97
2023-03-06T15:00:35.839Z,4.67
2023-03-06T15:03:07.658Z,4.50
2023-03-06T15:05:35.347Z,5.53
2023-03-06T15:08:06.848Z,5.90
2023-03-06T15:10:38.728Z,5.80
2023-03-06T15:13:20.982Z,6.47
2023-03-06T15:16:05.911Z,8.20
2023-03-06T15:18:54.414Z,9.00
2023-03-06T15:21:23.902Z,9.90
2023-03-06T15:23:52.586Z,8.63
2023-03-06T15:26:29.265Z,8.13
2023-03-06T15:29:08.259Z,7.00
2023-03-06T15:31:38.900Z,6.90
2023-03-06T15:34:11.588Z,8.50
2023-03-06T15:36:40.932Z,7.90
2023-03-06T15:39:26.920Z,9.03
2023-03-06T15:42:16.135Z,12.57
2023-03-06T15:44:42.888Z,11.77
2023-03-06T15:47:11.857Z,13.67
2023-03-06T15:49:39.932Z,13.63
2023-03-06T15:52:07.564Z,14.10
2023-03-06T15:54:34.418Z,12.27
2023-03-06T15:57:05.248Z,11.90
2023-03-06T15:59:40.356Z,11.50
2023-03-06T16:02:14.553Z,11.43
2023-03-06T16:04:41.558Z,12.30
2023-03-06T16:07:08.949Z,13.83
2023-03-06T16:09:36.244Z,12.20
2023-03-06T16:12:04.046Z,11.40
2023-03-06T16:14:30.921Z,15.20
2023-03-06T16:16:59.501Z,12.97
2023-03-06T16:19:27.638Z,15.43
2023-03-06T16:21:56.363Z,19.23
2023-03-06T16:24:26.117Z,18.83
2023-03-06T16:26:54.901Z,15.63
2023-03-06T16:29:25.900Z,18.37
2023-03-06T16:31:55.223Z,16.77
2023-03-06T16:34:22.656Z,12.07
2023-03-06T16:36:50.287Z,10.30
2023-03-06T16:39:22.648Z,8.60
2023-03-06T16:41:50.439Z,6.33
2023-03-06T16:44:17.688Z,6.17
2023-03-06T16:46:47.241Z,6.27
2023-03-06T16:49:23.580Z,6.33
2023-03-06T16:51:52.131Z,7.33
2023-03-06T16:54:19.666Z,6.27
2023-03-06T16:56:46.693Z,6.23
2023-03-06T16:59:13.558Z,6.77
2023-03-06T17:01:43.155Z,6.80
2023-03-06T17:04:10.565Z,8.37
2023-03-06T17:06:38.554Z,16.63
2023-03-06T17:09:05.614Z,15.33
2023-03-06T17:11:32.623Z,11.97
2023-03-06T17:13:59.575Z,10.73
2023-03-06T17:16:26.630Z,9.13
2023-03-06T17:18:54.970Z,9.70
2023-03-06T17:21:21.990Z,9.80
2023-03-06T17:23:50.814Z,9.03
2023-03-06T17:26:19.058Z,10.10
2023-03-06T17:28:46.715Z,9.80
2023-03-06T17:31:16.767Z,9.23
2023-03-06T17:33:44.075Z,9.77
2023-03-06T17:36:12.134Z,10.00
2023-03-06T17:38:38.855Z,10.00
2023-03-06T17:41:09.580Z,10.30
2023-03-06T17:43:37.713Z,9.83
2023-03-06T17:46:09.961Z,9.97
2023-03-06T17:48:37.691Z,10.43
2023-03-06T17:51:05.986Z,10.57
2023-03-06T17:53:33.208Z,11.17
2023-03-06T17:56:02.460Z,11.97
2023-03-06T17:58:29.189Z,9.93
2023-03-06T18:00:56.391Z,10.73
2023-03-06T18:03:23.338Z,10.10
2023-03-06T18:06:04.499Z,11.17
2023-03-06T18:08:32.222Z,11.40
2023-03-06T18:11:04.331Z,11.13
2023-03-06T18:13:32.987Z,9.37
2023-03-06T18:16:00.823Z,7.03
2023-03-06T18:18:28.361Z,9.10
2023-03-06T18:20:55.803Z,9.13
2023-03-06T18:23:23.477Z,8.80
2023-03-06T18:25:50.492Z,8.23
2023-03-06T18:28:17.333Z,7.53
2023-03-06T18:30:44.542Z,8.17
2023-03-06T18:33:11.458Z,8.47
2023-03-06T18:35:38.449Z,10.13
2023-03-06T18:38:05.293Z,8.50
2023-03-06T18:40:32.458Z,9.37
2023-03-06T18:42:59.260Z,8.43
2023-03-06T18:45:26.333Z,8.40
2023-03-06T18:47:53.070Z,8.90
2023-03-06T18:50:20.219Z,10.10
2023-03-06T18:52:47.024Z,9.20
2023-03-06T18:55:14.188Z,9.37
2023-03-06T18:57:41.363Z,9.30
2023-03-06T19:00:09.090Z,10.23
2023-03-06T19:02:35.931Z,9.83
2023-03-06T19:05:03.004Z,10.13
2023-03-06T19:07:29.797Z,10.40
2023-03-06T19:09:56.877Z,11.53
2023-03-06T19:12:23.733Z,11.20
2023-03-06T19:14:50.800Z,11.47
2023-03-06T19:17:17.519Z,11.50
2023-03-06T19:19:44.662Z,11.07
2023-03-06T19:22:11.425Z,10.07
2023-03-06T19:24:38.496Z,11.03
2023-03-06T19:27:05.233Z,11.60
2023-03-06T19:29:32.545Z,10.77
2023-03-06T19:31:59.519Z,10.77
2023-03-06T19:34:26.783Z,11.60
2023-03-06T19:36:53.597Z,10.63
2023-03-06T19:39:20.679Z,10.90
2023-03-06T19:41:47.872Z,10.40
2023-03-06T19:44:16.329Z,10.37
2023-03-06T19:46:43.586Z,9.97
2023-03-06T19:49:16.980Z,11.67
2023-03-06T19:51:44.413Z,10.30
2023-03-06T19:54:12.757Z,11.33
2023-03-06T19:56:40.117Z,11.30
2023-03-06T19:59:07.352Z,11.73
2023-03-06T20:01:34.474Z,12.30
2023-03-06T20:04:02.066Z,11.30
2023-03-06T20:06:33.620Z,11.80
2023-03-06T20:09:02.239Z,12.83
2023-03-06T20:11:30.004Z,13.47
2023-03-06T20:13:59.384Z,11.53
2023-03-06T20:16:30.068Z,12.33
2023-03-06T20:19:00.265Z,12.37
2023-03-06T20:21:29.121Z,12.87
2023-03-06T20:23:58.186Z,12.43
2023-03-06T20:26:26.465Z,13.83
2023-03-06T20:28:54.764Z,12.93
2023-03-06T20:31:25.315Z,12.07
2023-03-06T20:33:55.100Z,11.40
2023-03-06T20:36:28.907Z,12.47
2023-03-06T20:38:59.157Z,12.23
2023-03-06T20:41:28.026Z,12.37
2023-03-06T20:43:55.095Z,12.17
2023-03-06T20:46:23.223Z,13.27
2023-03-06T20:48:52.440Z,13.33
2023-03-06T20:51:21.951Z,12.23
2023-03-06T20:53:50.693Z,15.73
2023-03-06T20:56:20.379Z,13.60
2023-03-06T20:58:47.518Z,13.93
2023-03-06T21:01:25.795Z,14.30
2023-03-06T21:03:53.752Z,13.20
2023-03-06T21:06:21.164Z,13.10
2023-03-06T21:08:48.655Z,15.00
2023-03-06T21:11:16.133Z,16.47
2023-03-06T21:13:43.500Z,15.70
2023-03-06T21:16:12.889Z,16.83
2023-03-06T21:18:40.118Z,16.13
2023-03-06T21:21:12.240Z,17.80
2023-03-06T21:23:39.836Z,18.90
2023-03-06T21:26:11.821Z,18.50
2023-03-06T21:28:39.781Z,17.30
2023-03-06T21:31:09.012Z,18.47
2023-03-06T21:33:36.334Z,18.77
2023-03-06T21:36:03.603Z,16.50
2023-03-06T21:38:31.246Z,17.40
2023-03-06T21:41:10.437Z,17.10
2023-03-06T21:43:38.016Z,16.90
2023-03-06T21:46:05.235Z,18.93
2023-03-06T21:48:32.340Z,17.37
2023-03-06T21:51:10.126Z,18.73
2023-03-06T21:53:37.613Z,19.00
2023-03-06T21:56:05.166Z,17.57
2023-03-06T21:58:32.391Z,18.27
2023-03-06T22:00:59.606Z,18.10
2023-03-06T22:03:28.627Z,19.30
2023-03-06T22:05:56.534Z,17.63
2023-03-06T22:08:25.065Z,18.57
2023-03-06T22:10:51.795Z,18.80
2023-03-06T22:13:19.306Z,18.67
2023-03-06T22:15:52.683Z,17.43
2023-03-06T22:18:20.241Z,17.53
2023-03-06T22:20:47.312Z,18.33
2023-03-06T22:23:14.504Z,18.70
2023-03-06T22:25:41.261Z,19.10
2023-03-06T22:28:08.297Z,18.80
2023-03-06T22:30:35.088Z,19.03
2023-03-06T22:33:02.099Z,18.67
2023-03-06T22:35:28.943Z,20.73
2023-03-06T22:37:56.239Z,19.13
2023-03-06T22:40:22.938Z,19.00
2023-03-06T22:42:49.939Z,19.53
2023-03-06T22:45:17.079Z,21.50
2023-03-06T22:47:44.152Z,19.23
2023-03-06T22:50:11.514Z,21.70
2023-03-06T22:52:38.742Z,17.50
2023-03-06T22:55:06.054Z,19.37
2023-03-06T22:57:33.087Z,20.20
2023-03-06T22:59:59.896Z,20.77
2023-03-06T23:02:33.081Z,20.40
2023-03-06T23:04:59.882Z,19.73
2023-03-06T23:07:26.858Z,18.33
2023-03-06T23:10:00.535Z,19.90
2023-03-06T23:12:46.194Z,18.87
2023-03-06T23:15:32.417Z,17.83
2023-03-06T23:18:17.814Z,19.07
2023-03-06T23:21:14.466Z,18.77
2023-03-06T23:24:00.319Z,19.67
2023-03-06T23:26:29.730Z,20.57
2023-03-06T23:28:57.595Z,20.23
2023-03-06T23:31:29.373Z,20.37
2023-03-06T23:33:58.487Z,21.27
2023-03-06T23:36:25.669Z,21.77
2023-03-06T23:38:52.868Z,20.83
2023-03-06T23:41:21.114Z,20.37
2023-03-06T23:43:49.387Z,21.40
2023-03-06T23:46:16.568Z,22.67
2023-03-06T23:48:44.309Z,21.37
2023-03-06T23:51:19.315Z,22.67
2023-03-06T23:53:48.318Z,22.60
2023-03-06T23:56:15.374Z,20.60
2023-03-06T23:58:42.486Z,20.70
